sensor_id;sensor_type;location;lat;lon;timestamp;pressure;altitude;pressure_sealevel;temperature
66299;BMP180;53098;47.658;8.578;2024-03-02T00:01:04;95280.00;;;5.10
66299;BMP180;53098;47.658;8.578;2024-03-02T00:03:29;95289.00;;;5.00
66299;BMP180;53098;47.658;8.578;2024-03-02T00:05:54;95301.00;;;5.20
66299;BMP180;53098;47.658;8.578;2024-03-02T00:08:24;95293.00;;;5.30
66299;BMP180;53098;47.658;8.578;2024-03-02T00:10:50;95295.00;;;5.30
66299;BMP180;53098;47.658;8.578;2024-03-02T00:13:15;95286.00;;;5.30
66299;BMP180;53098;47.658;8.578;2024-03-02T00:18:07;95285.00;;;5.40
66299;BMP180;53098;47.658;8.578;2024-03-02T00:20:32;95282.00;;;5.40
66299;BMP180;53098;47.658;8.578;2024-03-02T00:23:08;95299.00;;;5.40
66299;BMP180;53098;47.658;8.578;2024-03-02T00:25:39;95290.00;;;5.40
66299;BMP180;53098;47.658;8.578;2024-03-02T00:28:05;95299.00;;;5.40
66299;BMP180;53098;47.658;8.578;2024-03-02T00:33:14;95308.00;;;5.30
66299;BMP180;53098;47.658;8.578;2024-03-02T00:35:39;95308.00;;;5.50
66299;BMP180;53098;47.658;8.578;2024-03-02T00:38:06;95305.00;;;5.40
66299;BMP180;53098;47.658;8.578;2024-03-02T00:40:31;95307.00;;;5.30
66299;BMP180;53098;47.658;8.578;2024-03-02T00:42:57;95310.00;;;5.20
66299;BMP180;53098;47.658;8.578;2024-03-02T00:45:23;95313.00;;;5.20
66299;BMP180;53098;47.658;8.578;2024-03-02T00:47:49;95300.00;;;5.20
66299;BMP180;53098;47.658;8.578;2024-03-02T00:50:14;95310.00;;;5.30
66299;BMP180;53098;47.658;8.578;2024-03-02T00:52:40;95298.00;;;5.30
66299;BMP180;53098;47.658;8.578;2024-03-02T00:55:07;95304.00;;;5.30
66299;BMP180;53098;47.658;8.578;2024-03-02T00:57:34;95307.00;;;5.50
66299;BMP180;53098;47.658;8.578;2024-03-02T00:59:59;95304.00;;;5.30
66299;BMP180;53098;47.658;8.578;2024-03-02T01:02:25;95305.00;;;5.20
66299;BMP180;53098;47.658;8.578;2024-03-02T01:04:50;95305.00;;;5.10
66299;BMP180;53098;47.658;8.578;2024-03-02T01:07:15;95297.00;;;5.00
66299;BMP180;53098;47.658;8.578;2024-03-02T01:09:41;95294.00;;;5.00
66299;BMP180;53098;47.658;8.578;2024-03-02T01:12:07;95296.00;;;5.00
66299;BMP180;53098;47.658;8.578;2024-03-02T01:14:32;95295.00;;;5.00
66299;BMP180;53098;47.658;8.578;2024-03-02T01:16:57;95304.00;;;5.00
66299;BMP180;53098;47.658;8.578;2024-03-02T01:19:23;95309.00;;;4.80
66299;BMP180;53098;47.658;8.578;2024-03-02T01:21:48;95303.00;;;4.90
66299;BMP180;53098;47.658;8.578;2024-03-02T01:24:14;95302.00;;;4.80
66299;BMP180;53098;47.658;8.578;2024-03-02T01:26:39;95296.00;;;4.80
66299;BMP180;53098;47.658;8.578;2024-03-02T01:29:04;95301.00;;;4.90
66299;BMP180;53098;47.658;8.578;2024-03-02T01:31:30;95299.00;;;4.90
66299;BMP180;53098;47.658;8.578;2024-03-02T01:33:55;95296.00;;;4.90
66299;BMP180;53098;47.658;8.578;2024-03-02T01:36:21;95305.00;;;4.90
66299;BMP180;53098;47.658;8.578;2024-03-02T01:38:46;95295.00;;;4.90
66299;BMP180;53098;47.658;8.578;2024-03-02T01:41:12;95297.00;;;4.90
66299;BMP180;53098;47.658;8.578;2024-03-02T01:43:38;95303.00;;;4.90
66299;BMP180;53098;47.658;8.578;2024-03-02T01:46:04;95304.00;;;5.00
66299;BMP180;53098;47.658;8.578;2024-03-02T01:48:29;95304.00;;;4.90
66299;BMP180;53098;47.658;8.578;2024-03-02T01:50:55;95315.00;;;4.90
66299;BMP180;53098;47.658;8.578;2024-03-02T01:53:20;95303.00;;;4.90
66299;BMP180;53098;47.658;8.578;2024-03-02T01:55:46;95313.00;;;4.90
66299;BMP180;53098;47.658;8.578;2024-03-02T01:58:12;95309.00;;;4.90
66299;BMP180;53098;47.658;8.578;2024-03-02T02:00:37;95307.00;;;4.90
66299;BMP180;53098;47.658;8.578;2024-03-02T02:03:03;95298.00;;;4.90
66299;BMP180;53098;47.658;8.578;2024-03-02T02:05:29;95301.00;;;4.80
66299;BMP180;53098;47.658;8.578;2024-03-02T02:07:57;95294.00;;;4.80
66299;BMP180;53098;47.658;8.578;2024-03-02T02:10:23;95298.00;;;4.80
66299;BMP180;53098;47.658;8.578;2024-03-02T02:12:52;95286.00;;;4.60
66299;BMP180;53098;47.658;8.578;2024-03-02T02:15:25;95300.00;;;4.70
66299;BMP180;53098;47.658;8.578;2024-03-02T02:17:51;95308.00;;;4.80
66299;BMP180;53098;47.658;8.578;2024-03-02T02:20:17;95295.00;;;4.70
66299;BMP180;53098;47.658;8.578;2024-03-02T02:23:00;95297.00;;;4.70
66299;BMP180;53098;47.658;8.578;2024-03-02T02:25:26;95300.00;;;4.70
66299;BMP180;53098;47.658;8.578;2024-03-02T02:27:51;95293.00;;;4.70
66299;BMP180;53098;47.658;8.578;2024-03-02T02:30:27;95293.00;;;4.70
66299;BMP180;53098;47.658;8.578;2024-03-02T02:32:53;95288.00;;;4.70
66299;BMP180;53098;47.658;8.578;2024-03-02T02:35:19;95306.00;;;4.80
66299;BMP180;53098;47.658;8.578;2024-03-02T02:37:45;95285.00;;;4.70
66299;BMP180;53098;47.658;8.578;2024-03-02T02:40:12;95293.00;;;4.80
66299;BMP180;53098;47.658;8.578;2024-03-02T02:42:37;95282.00;;;4.80
66299;BMP180;53098;47.658;8.578;2024-03-02T02:45:03;95282.00;;;4.80
66299;BMP180;53098;47.658;8.578;2024-03-02T02:47:29;95285.00;;;4.90
66299;BMP180;53098;47.658;8.578;2024-03-02T02:49:54;95283.00;;;4.90
66299;BMP180;53098;47.658;8.578;2024-03-02T02:52:19;95280.00;;;4.90
66299;BMP180;53098;47.658;8.578;2024-03-02T02:54:45;95275.00;;;4.90
66299;BMP180;53098;47.658;8.578;2024-03-02T02:57:10;95282.00;;;4.90
66299;BMP180;53098;47.658;8.578;2024-03-02T02:59:36;95278.00;;;4.90
66299;BMP180;53098;47.658;8.578;2024-03-02T03:02:01;95281.00;;;5.00
66299;BMP180;53098;47.658;8.578;2024-03-02T03:04:27;95282.00;;;5.00
66299;BMP180;53098;47.658;8.578;2024-03-02T03:06:52;95283.00;;;5.00
66299;BMP180;53098;47.658;8.578;2024-03-02T03:09:17;95281.00;;;5.00
66299;BMP180;53098;47.658;8.578;2024-03-02T03:11:43;95277.00;;;5.00
66299;BMP180;53098;47.658;8.578;2024-03-02T03:14:08;95278.00;;;5.00
66299;BMP180;53098;47.658;8.578;2024-03-02T03:16:34;95277.00;;;5.10
66299;BMP180;53098;47.658;8.578;2024-03-02T03:18:59;95274.00;;;5.00
66299;BMP180;53098;47.658;8.578;2024-03-02T03:21:25;95272.00;;;5.00
66299;BMP180;53098;47.658;8.578;2024-03-02T03:23:50;95272.00;;;5.10
66299;BMP180;53098;47.658;8.578;2024-03-02T03:26:15;95271.00;;;5.10
66299;BMP180;53098;47.658;8.578;2024-03-02T03:28:41;95271.00;;;5.00
66299;BMP180;53098;47.658;8.578;2024-03-02T03:31:06;95282.00;;;5.10
66299;BMP180;53098;47.658;8.578;2024-03-02T03:33:32;95279.00;;;4.90
66299;BMP180;53098;47.658;8.578;2024-03-02T03:35:58;95279.00;;;4.80
66299;BMP180;53098;47.658;8.578;2024-03-02T03:38:23;95277.00;;;4.90
66299;BMP180;53098;47.658;8.578;2024-03-02T03:40:49;95272.00;;;4.80
66299;BMP180;53098;47.658;8.578;2024-03-02T03:43:14;95274.00;;;4.80
66299;BMP180;53098;47.658;8.578;2024-03-02T03:45:40;95291.00;;;4.90
66299;BMP180;53098;47.658;8.578;2024-03-02T03:48:05;95276.00;;;4.80
66299;BMP180;53098;47.658;8.578;2024-03-02T03:50:31;95282.00;;;4.90
66299;BMP180;53098;47.658;8.578;2024-03-02T03:52:56;95291.00;;;5.00
66299;BMP180;53098;47.658;8.578;2024-03-02T03:55:22;95296.00;;;4.90
66299;BMP180;53098;47.658;8.578;2024-03-02T03:57:48;95292.00;;;4.90
66299;BMP180;53098;47.658;8.578;2024-03-02T04:00:14;95295.00;;;4.80
66299;BMP180;53098;47.658;8.578;2024-03-02T04:02:39;95296.00;;;4.80
66299;BMP180;53098;47.658;8.578;2024-03-02T04:05:05;95292.00;;;4.90
66299;BMP180;53098;47.658;8.578;2024-03-02T04:07:31;95288.00;;;4.90
66299;BMP180;53098;47.658;8.578;2024-03-02T04:09:57;95281.00;;;5.00
66299;BMP180;53098;47.658;8.578;2024-03-02T04:12:22;95283.00;;;5.00
66299;BMP180;53098;47.658;8.578;2024-03-02T04:14:48;95279.00;;;5.10
66299;BMP180;53098;47.658;8.578;2024-03-02T04:17:14;95292.00;;;4.90
66299;BMP180;53098;47.658;8.578;2024-03-02T04:19:39;95280.00;;;5.00
66299;BMP180;53098;47.658;8.578;2024-03-02T04:22:05;95277.00;;;5.00
66299;BMP180;53098;47.658;8.578;2024-03-02T04:24:30;95269.00;;;5.10
66299;BMP180;53098;47.658;8.578;2024-03-02T04:26:56;95277.00;;;5.10
66299;BMP180;53098;47.658;8.578;2024-03-02T04:29:21;95278.00;;;5.10
66299;BMP180;53098;47.658;8.578;2024-03-02T04:31:47;95270.00;;;5.20
66299;BMP180;53098;47.658;8.578;2024-03-02T04:34:12;95281.00;;;5.00
66299;BMP180;53098;47.658;8.578;2024-03-02T04:36:38;95285.00;;;5.10
66299;BMP180;53098;47.658;8.578;2024-03-02T04:39:03;95284.00;;;5.10
66299;BMP180;53098;47.658;8.578;2024-03-02T04:41:29;95276.00;;;5.00
66299;BMP180;53098;47.658;8.578;2024-03-02T04:43:54;95280.00;;;5.10
66299;BMP180;53098;47.658;8.578;2024-03-02T04:46:20;95280.00;;;5.10
66299;BMP180;53098;47.658;8.578;2024-03-02T04:48:45;95274.00;;;4.60
66299;BMP180;53098;47.658;8.578;2024-03-02T04:51:11;95284.00;;;4.90
66299;BMP180;53098;47.658;8.578;2024-03-02T04:53:36;95290.00;;;5.00
66299;BMP180;53098;47.658;8.578;2024-03-02T04:56:02;95290.00;;;5.10
66299;BMP180;53098;47.658;8.578;2024-03-02T04:58:28;95293.00;;;5.10
66299;BMP180;53098;47.658;8.578;2024-03-02T05:00:54;95294.00;;;5.10
66299;BMP180;53098;47.658;8.578;2024-03-02T05:03:19;95292.00;;;5.10
66299;BMP180;53098;47.658;8.578;2024-03-02T05:05:44;95290.00;;;5.10
66299;BMP180;53098;47.658;8.578;2024-03-02T05:08:10;95293.00;;;5.00
66299;BMP180;53098;47.658;8.578;2024-03-02T05:10:36;95302.00;;;5.10
66299;BMP180;53098;47.658;8.578;2024-03-02T05:13:01;95293.00;;;5.10
66299;BMP180;53098;47.658;8.578;2024-03-02T05:15:26;95302.00;;;5.10
66299;BMP180;53098;47.658;8.578;2024-03-02T05:17:52;95305.00;;;5.10
66299;BMP180;53098;47.658;8.578;2024-03-02T05:20:18;95308.00;;;5.10
66299;BMP180;53098;47.658;8.578;2024-03-02T05:22:43;95303.00;;;5.00
66299;BMP180;53098;47.658;8.578;2024-03-02T05:25:08;95306.00;;;5.10
66299;BMP180;53098;47.658;8.578;2024-03-02T05:27:34;95310.00;;;5.10
66299;BMP180;53098;47.658;8.578;2024-03-02T05:30:00;95299.00;;;5.00
66299;BMP180;53098;47.658;8.578;2024-03-02T05:32:25;95316.00;;;5.10
66299;BMP180;53098;47.658;8.578;2024-03-02T05:34:51;95313.00;;;5.20
66299;BMP180;53098;47.658;8.578;2024-03-02T05:37:17;95310.00;;;5.10
66299;BMP180;53098;47.658;8.578;2024-03-02T05:39:44;95305.00;;;5.10
66299;BMP180;53098;47.658;8.578;2024-03-02T05:42:09;95316.00;;;5.20
66299;BMP180;53098;47.658;8.578;2024-03-02T05:44:36;95312.00;;;5.20
66299;BMP180;53098;47.658;8.578;2024-03-02T05:47:01;95306.00;;;5.20
66299;BMP180;53098;47.658;8.578;2024-03-02T05:49:27;95313.00;;;5.20
66299;BMP180;53098;47.658;8.578;2024-03-02T05:51:53;95310.00;;;5.20
66299;BMP180;53098;47.658;8.578;2024-03-02T05:54:18;95311.00;;;5.20
66299;BMP180;53098;47.658;8.578;2024-03-02T05:56:44;95308.00;;;5.20
66299;BMP180;53098;47.658;8.578;2024-03-02T05:59:09;95305.00;;;5.20
66299;BMP180;53098;47.658;8.578;2024-03-02T06:01:35;95309.00;;;5.30
66299;BMP180;53098;47.658;8.578;2024-03-02T06:04:00;95307.00;;;5.30
66299;BMP180;53098;47.658;8.578;2024-03-02T06:06:26;95305.00;;;5.10
66299;BMP180;53098;47.658;8.578;2024-03-02T06:08:51;95306.00;;;5.20
66299;BMP180;53098;47.658;8.578;2024-03-02T06:11:19;95308.00;;;5.20
66299;BMP180;53098;47.658;8.578;2024-03-02T06:13:45;95319.00;;;5.20
66299;BMP180;53098;47.658;8.578;2024-03-02T06:16:10;95320.00;;;5.20
66299;BMP180;53098;47.658;8.578;2024-03-02T06:18:36;95315.00;;;5.00
66299;BMP180;53098;47.658;8.578;2024-03-02T06:21:02;95309.00;;;5.10
66299;BMP180;53098;47.658;8.578;2024-03-02T06:23:28;95318.00;;;5.20
66299;BMP180;53098;47.658;8.578;2024-03-02T06:25:53;95317.00;;;5.10
66299;BMP180;53098;47.658;8.578;2024-03-02T06:28:19;95321.00;;;5.10
66299;BMP180;53098;47.658;8.578;2024-03-02T06:30:44;95324.00;;;5.20
66299;BMP180;53098;47.658;8.578;2024-03-02T06:33:10;95329.00;;;5.00
66299;BMP180;53098;47.658;8.578;2024-03-02T06:35:36;95326.00;;;4.70
66299;BMP180;53098;47.658;8.578;2024-03-02T06:38:02;95319.00;;;4.80
66299;BMP180;53098;47.658;8.578;2024-03-02T06:40:28;95326.00;;;5.00
66299;BMP180;53098;47.658;8.578;2024-03-02T06:42:53;95328.00;;;4.80
66299;BMP180;53098;47.658;8.578;2024-03-02T06:45:19;95331.00;;;4.90
66299;BMP180;53098;47.658;8.578;2024-03-02T06:47:44;95324.00;;;4.90
66299;BMP180;53098;47.658;8.578;2024-03-02T06:50:10;95318.00;;;5.00
66299;BMP180;53098;47.658;8.578;2024-03-02T06:52:36;95316.00;;;4.80
66299;BMP180;53098;47.658;8.578;2024-03-02T06:55:02;95314.00;;;4.20
66299;BMP180;53098;47.658;8.578;2024-03-02T06:57:27;95313.00;;;4.50
66299;BMP180;53098;47.658;8.578;2024-03-02T06:59:52;95310.00;;;4.70
66299;BMP180;53098;47.658;8.578;2024-03-02T07:02:18;95314.00;;;4.60
66299;BMP180;53098;47.658;8.578;2024-03-02T07:04:43;95310.00;;;4.70
66299;BMP180;53098;47.658;8.578;2024-03-02T07:07:09;95318.00;;;4.80
66299;BMP180;53098;47.658;8.578;2024-03-02T07:09:34;95328.00;;;4.80
66299;BMP180;53098;47.658;8.578;2024-03-02T07:12:00;95325.00;;;4.50
66299;BMP180;53098;47.658;8.578;2024-03-02T07:14:26;95326.00;;;4.50
66299;BMP180;53098;47.658;8.578;2024-03-02T07:16:51;95322.00;;;4.60
66299;BMP180;53098;47.658;8.578;2024-03-02T07:19:16;95330.00;;;4.50
66299;BMP180;53098;47.658;8.578;2024-03-02T07:21:42;95313.00;;;4.40
66299;BMP180;53098;47.658;8.578;2024-03-02T07:24:07;95321.00;;;4.30
66299;BMP180;53098;47.658;8.578;2024-03-02T07:26:33;95317.00;;;4.40
66299;BMP180;53098;47.658;8.578;2024-03-02T07:28:58;95312.00;;;4.30
66299;BMP180;53098;47.658;8.578;2024-03-02T07:31:23;95311.00;;;4.60
66299;BMP180;53098;47.658;8.578;2024-03-02T07:33:49;95311.00;;;4.70
66299;BMP180;53098;47.658;8.578;2024-03-02T07:36:14;95318.00;;;4.80
66299;BMP180;53098;47.658;8.578;2024-03-02T07:38:40;95314.00;;;4.90
66299;BMP180;53098;47.658;8.578;2024-03-02T07:41:05;95311.00;;;5.00
66299;BMP180;53098;47.658;8.578;2024-03-02T07:43:31;95319.00;;;4.80
66299;BMP180;53098;47.658;8.578;2024-03-02T07:45:56;95316.00;;;4.90
66299;BMP180;53098;47.658;8.578;2024-03-02T07:48:22;95322.00;;;5.10
66299;BMP180;53098;47.658;8.578;2024-03-02T07:50:47;95316.00;;;5.10
66299;BMP180;53098;47.658;8.578;2024-03-02T07:53:13;95312.00;;;5.20
66299;BMP180;53098;47.658;8.578;2024-03-02T07:55:38;95314.00;;;5.30
66299;BMP180;53098;47.658;8.578;2024-03-02T07:58:04;95318.00;;;5.30
66299;BMP180;53098;47.658;8.578;2024-03-02T08:00:29;95310.00;;;5.20
66299;BMP180;53098;47.658;8.578;2024-03-02T08:02:55;95320.00;;;5.30
66299;BMP180;53098;47.658;8.578;2024-03-02T08:05:21;95310.00;;;5.40
66299;BMP180;53098;47.658;8.578;2024-03-02T08:07:47;95311.00;;;5.40
66299;BMP180;53098;47.658;8.578;2024-03-02T08:10:13;95305.00;;;5.50
66299;BMP180;53098;47.658;8.578;2024-03-02T08:12:39;95308.00;;;5.60
66299;BMP180;53098;47.658;8.578;2024-03-02T08:15:05;95321.00;;;5.60
66299;BMP180;53098;47.658;8.578;2024-03-02T08:17:30;95302.00;;;5.70
66299;BMP180;53098;47.658;8.578;2024-03-02T08:19:56;144539.00;;;5.60
66299;BMP180;53098;47.658;8.578;2024-03-02T08:22:23;95316.00;;;5.60
66299;BMP180;53098;47.658;8.578;2024-03-02T08:24:49;95319.00;;;5.70
66299;BMP180;53098;47.658;8.578;2024-03-02T08:27:14;95317.00;;;5.70
66299;BMP180;53098;47.658;8.578;2024-03-02T08:29:40;95313.00;;;5.70
66299;BMP180;53098;47.658;8.578;2024-03-02T08:32:06;95311.00;;;5.70
66299;BMP180;53098;47.658;8.578;2024-03-02T08:34:31;95303.00;;;5.60
66299;BMP180;53098;47.658;8.578;2024-03-02T08:36:57;95304.00;;;5.80
66299;BMP180;53098;47.658;8.578;2024-03-02T08:39:22;95299.00;;;5.80
66299;BMP180;53098;47.658;8.578;2024-03-02T08:41:47;95303.00;;;5.80
66299;BMP180;53098;47.658;8.578;2024-03-02T08:44:13;95296.00;;;5.70
66299;BMP180;53098;47.658;8.578;2024-03-02T08:46:40;95293.00;;;5.80
66299;BMP180;53098;47.658;8.578;2024-03-02T08:49:06;95287.00;;;5.80
66299;BMP180;53098;47.658;8.578;2024-03-02T08:51:31;95253.00;;;6.00
66299;BMP180;53098;47.658;8.578;2024-03-02T08:53:57;95294.00;;;6.00
66299;BMP180;53098;47.658;8.578;2024-03-02T08:56:23;95288.00;;;5.90
66299;BMP180;53098;47.658;8.578;2024-03-02T08:58:49;228747.00;;;220.60
66299;BMP180;53098;47.658;8.578;2024-03-02T09:01:15;228747.00;;;220.60
66299;BMP180;53098;47.658;8.578;2024-03-02T09:03:41;228747.00;;;220.60
66299;BMP180;53098;47.658;8.578;2024-03-02T09:06:06;228747.00;;;220.60
66299;BMP180;53098;47.658;8.578;2024-03-02T09:08:32;228747.00;;;220.60
66299;BMP180;53098;47.658;8.578;2024-03-02T09:10:59;228747.00;;;220.60
66299;BMP180;53098;47.658;8.578;2024-03-02T09:13:24;228747.00;;;220.60
66299;BMP180;53098;47.658;8.578;2024-03-02T09:15:49;228747.00;;;220.60
66299;BMP180;53098;47.658;8.578;2024-03-02T09:18:15;95277.00;;;6.30
66299;BMP180;53098;47.658;8.578;2024-03-02T09:20:40;95277.00;;;6.40
66299;BMP180;53098;47.658;8.578;2024-03-02T09:23:06;95271.00;;;6.50
66299;BMP180;53098;47.658;8.578;2024-03-02T09:25:31;228747.00;;;220.60
66299;BMP180;53098;47.658;8.578;2024-03-02T09:27:56;228747.00;;;220.60
66299;BMP180;53098;47.658;8.578;2024-03-02T09:30:22;228747.00;;;220.60
66299;BMP180;53098;47.658;8.578;2024-03-02T09:32:47;228747.00;;;220.60
66299;BMP180;53098;47.658;8.578;2024-03-02T09:35:12;228747.00;;;220.60
66299;BMP180;53098;47.658;8.578;2024-03-02T09:37:38;228747.00;;;220.60
66299;BMP180;53098;47.658;8.578;2024-03-02T09:40:03;228747.00;;;220.60
66299;BMP180;53098;47.658;8.578;2024-03-02T09:42:29;228747.00;;;220.60
66299;BMP180;53098;47.658;8.578;2024-03-02T09:44:55;228747.00;;;220.60
66299;BMP180;53098;47.658;8.578;2024-03-02T09:47:21;228747.00;;;220.60
66299;BMP180;53098;47.658;8.578;2024-03-02T09:49:47;228747.00;;;220.60
66299;BMP180;53098;47.658;8.578;2024-03-02T09:52:13;228747.00;;;220.60
66299;BMP180;53098;47.658;8.578;2024-03-02T09:54:38;228747.00;;;220.60
66299;BMP180;53098;47.658;8.578;2024-03-02T09:57:04;228747.00;;;220.60
66299;BMP180;53098;47.658;8.578;2024-03-02T09:59:30;228747.00;;;220.60
66299;BMP180;53098;47.658;8.578;2024-03-02T10:02:00;228747.00;;;220.60
66299;BMP180;53098;47.658;8.578;2024-03-02T10:04:26;228747.00;;;220.60
66299;BMP180;53098;47.658;8.578;2024-03-02T10:07:09;228747.00;;;220.60
66299;BMP180;53098;47.658;8.578;2024-03-02T10:09:35;228747.00;;;220.60
66299;BMP180;53098;47.658;8.578;2024-03-02T10:12:04;228747.00;;;220.60
66299;BMP180;53098;47.658;8.578;2024-03-02T10:14:30;228747.00;;;220.60
66299;BMP180;53098;47.658;8.578;2024-03-02T10:17:02;228747.00;;;220.60
66299;BMP180;53098;47.658;8.578;2024-03-02T10:19:27;228747.00;;;220.60
66299;BMP180;53098;47.658;8.578;2024-03-02T10:21:53;228747.00;;;220.60
66299;BMP180;53098;47.658;8.578;2024-03-02T10:24:20;228747.00;;;220.60
66299;BMP180;53098;47.658;8.578;2024-03-02T10:26:46;228747.00;;;220.60
66299;BMP180;53098;47.658;8.578;2024-03-02T10:29:12;228747.00;;;220.60
66299;BMP180;53098;47.658;8.578;2024-03-02T10:31:39;228747.00;;;220.60
66299;BMP180;53098;47.658;8.578;2024-03-02T10:34:05;95192.00;;;10.10
66299;BMP180;53098;47.658;8.578;2024-03-02T10:36:32;228747.00;;;220.60
66299;BMP180;53098;47.658;8.578;2024-03-02T10:38:58;228747.00;;;220.60
66299;BMP180;53098;47.658;8.578;2024-03-02T10:41:24;94980.00;;;10.80
66299;BMP180;53098;47.658;8.578;2024-03-02T10:43:52;228747.00;;;220.60
66299;BMP180;53098;47.658;8.578;2024-03-02T10:46:22;228747.00;;;220.60
66299;BMP180;53098;47.658;8.578;2024-03-02T10:48:48;228747.00;;;220.60
66299;BMP180;53098;47.658;8.578;2024-03-02T10:51:14;228747.00;;;220.60
66299;BMP180;53098;47.658;8.578;2024-03-02T10:53:39;228747.00;;;220.60
66299;BMP180;53098;47.658;8.578;2024-03-02T10:56:07;94827.00;;;12.00
66299;BMP180;53098;47.658;8.578;2024-03-02T10:58:33;95160.00;;;11.90
66299;BMP180;53098;47.658;8.578;2024-03-02T11:01:02;228747.00;;;220.60
66299;BMP180;53098;47.658;8.578;2024-03-02T11:03:29;228747.00;;;220.60
66299;BMP180;53098;47.658;8.578;2024-03-02T11:05:58;228747.00;;;220.60
66299;BMP180;53098;47.658;8.578;2024-03-02T11:08:26;228747.00;;;220.60
66299;BMP180;53098;47.658;8.578;2024-03-02T11:11:18;228747.00;;;12.20
66299;BMP180;53098;47.658;8.578;2024-03-02T11:13:49;95148.00;;;11.80
66299;BMP180;53098;47.658;8.578;2024-03-02T11:16:31;95150.00;;;11.60
66299;BMP180;53098;47.658;8.578;2024-03-02T11:18:58;95143.00;;;12.20
66299;BMP180;53098;47.658;8.578;2024-03-02T11:21:24;228747.00;;;220.60
66299;BMP180;53098;47.658;8.578;2024-03-02T11:23:50;69391.00;;;13.00
66299;BMP180;53098;47.658;8.578;2024-03-02T11:26:19;69312.00;;;13.30
66299;BMP180;53098;47.658;8.578;2024-03-02T11:28:45;95142.00;;;13.50
66299;BMP180;53098;47.658;8.578;2024-03-02T11:31:11;95138.00;;;13.60
66299;BMP180;53098;47.658;8.578;2024-03-02T11:33:36;95147.00;;;13.50
66299;BMP180;53098;47.658;8.578;2024-03-02T11:36:02;95148.00;;;13.30
66299;BMP180;53098;47.658;8.578;2024-03-02T11:38:28;95139.00;;;13.50
66299;BMP180;53098;47.658;8.578;2024-03-02T11:40:54;95131.00;;;13.60
66299;BMP180;53098;47.658;8.578;2024-03-02T11:43:20;95132.00;;;13.80
66299;BMP180;53098;47.658;8.578;2024-03-02T11:45:45;95131.00;;;13.70
66299;BMP180;53098;47.658;8.578;2024-03-02T11:48:14;95131.00;;;13.90
66299;BMP180;53098;47.658;8.578;2024-03-02T11:50:50;95124.00;;;13.90
66299;BMP180;53098;47.658;8.578;2024-03-02T11:53:16;95122.00;;;14.10
66299;BMP180;53098;47.658;8.578;2024-03-02T11:55:41;95117.00;;;14.00
66299;BMP180;53098;47.658;8.578;2024-03-02T11:58:07;95118.00;;;13.80
66299;BMP180;53098;47.658;8.578;2024-03-02T12:00:33;95113.00;;;14.10
66299;BMP180;53098;47.658;8.578;2024-03-02T12:03:04;95093.00;;;14.20
66299;BMP180;53098;47.658;8.578;2024-03-02T12:05:31;95099.00;;;14.10
66299;BMP180;53098;47.658;8.578;2024-03-02T12:08:03;95103.00;;;14.30
66299;BMP180;53098;47.658;8.578;2024-03-02T12:10:30;95087.00;;;14.50
66299;BMP180;53098;47.658;8.578;2024-03-02T12:13:06;95087.00;;;14.30
66299;BMP180;53098;47.658;8.578;2024-03-02T12:15:33;95091.00;;;14.60
66299;BMP180;53098;47.658;8.578;2024-03-02T12:18:00;95087.00;;;14.80
66299;BMP180;53098;47.658;8.578;2024-03-02T12:20:28;95091.00;;;14.90
66299;BMP180;53098;47.658;8.578;2024-03-02T12:22:55;95086.00;;;15.20
66299;BMP180;53098;47.658;8.578;2024-03-02T12:25:22;95081.00;;;15.20
66299;BMP180;53098;47.658;8.578;2024-03-02T12:27:54;95071.00;;;15.20
66299;BMP180;53098;47.658;8.578;2024-03-02T12:30:21;95062.00;;;15.30
66299;BMP180;53098;47.658;8.578;2024-03-02T12:32:47;95062.00;;;15.60
66299;BMP180;53098;47.658;8.578;2024-03-02T12:35:13;95056.00;;;15.50
66299;BMP180;53098;47.658;8.578;2024-03-02T12:37:49;95054.00;;;15.60
66299;BMP180;53098;47.658;8.578;2024-03-02T12:40:15;95038.00;;;15.70
66299;BMP180;53098;47.658;8.578;2024-03-02T12:42:41;95033.00;;;15.80
66299;BMP180;53098;47.658;8.578;2024-03-02T12:45:07;95038.00;;;15.70
66299;BMP180;53098;47.658;8.578;2024-03-02T12:47:34;95030.00;;;15.90
66299;BMP180;53098;47.658;8.578;2024-03-02T12:50:00;95029.00;;;16.20
66299;BMP180;53098;47.658;8.578;2024-03-02T12:52:25;95028.00;;;16.20
66299;BMP180;53098;47.658;8.578;2024-03-02T12:54:51;95022.00;;;16.20
66299;BMP180;53098;47.658;8.578;2024-03-02T12:57:20;95028.00;;;16.10
66299;BMP180;53098;47.658;8.578;2024-03-02T12:59:46;95026.00;;;16.40
66299;BMP180;53098;47.658;8.578;2024-03-02T13:02:18;95028.00;;;16.50
66299;BMP180;53098;47.658;8.578;2024-03-02T13:04:44;95023.00;;;16.70
66299;BMP180;53098;47.658;8.578;2024-03-02T13:07:13;95022.00;;;16.70
66299;BMP180;53098;47.658;8.578;2024-03-02T13:09:38;95021.00;;;16.80
66299;BMP180;53098;47.658;8.578;2024-03-02T13:12:05;95012.00;;;17.00
66299;BMP180;53098;47.658;8.578;2024-03-02T13:14:32;95006.00;;;17.20
66299;BMP180;53098;47.658;8.578;2024-03-02T13:16:58;95009.00;;;17.60
66299;BMP180;53098;47.658;8.578;2024-03-02T13:19:23;94996.00;;;17.30
66299;BMP180;53098;47.658;8.578;2024-03-02T13:21:49;94987.00;;;17.80
66299;BMP180;53098;47.658;8.578;2024-03-02T13:24:14;94992.00;;;17.80
66299;BMP180;53098;47.658;8.578;2024-03-02T13:26:39;94989.00;;;17.60
66299;BMP180;53098;47.658;8.578;2024-03-02T13:29:05;94982.00;;;17.70
66299;BMP180;53098;47.658;8.578;2024-03-02T13:31:30;94970.00;;;18.00
66299;BMP180;53098;47.658;8.578;2024-03-02T13:33:56;94972.00;;;18.20
66299;BMP180;53098;47.658;8.578;2024-03-02T13:36:21;94976.00;;;18.00
66299;BMP180;53098;47.658;8.578;2024-03-02T13:38:47;94975.00;;;18.40
66299;BMP180;53098;47.658;8.578;2024-03-02T13:41:12;94978.00;;;18.10
66299;BMP180;53098;47.658;8.578;2024-03-02T13:43:38;94962.00;;;18.50
66299;BMP180;53098;47.658;8.578;2024-03-02T13:46:03;94963.00;;;18.50
66299;BMP180;53098;47.658;8.578;2024-03-02T13:48:28;94971.00;;;18.10
66299;BMP180;53098;47.658;8.578;2024-03-02T13:50:54;94981.00;;;18.20
66299;BMP180;53098;47.658;8.578;2024-03-02T13:53:20;94973.00;;;18.10
66299;BMP180;53098;47.658;8.578;2024-03-02T13:55:46;94973.00;;;17.90
66299;BMP180;53098;47.658;8.578;2024-03-02T13:58:11;94970.00;;;17.40
66299;BMP180;53098;47.658;8.578;2024-03-02T14:00:37;94966.00;;;16.90
66299;BMP180;53098;47.658;8.578;2024-03-02T14:03:03;94972.00;;;17.00
66299;BMP180;53098;47.658;8.578;2024-03-02T14:05:29;94966.00;;;16.50
66299;BMP180;53098;47.658;8.578;2024-03-02T14:07:54;94960.00;;;16.40
66299;BMP180;53098;47.658;8.578;2024-03-02T14:10:20;94964.00;;;16.30
66299;BMP180;53098;47.658;8.578;2024-03-02T14:12:45;94961.00;;;16.10